Apalachicola, FL

6:56 AM EDT on September 17, 2014 (GMT -0400)
Apalachicola Municipal | Change Station
CLOSE
Current Station
Airport
Location: Apalachicola,
Elevation: 20 ft
Nearby Weather Stations

Elev 20 ft 29.73 °N, 85.03 °W | Updated 3 minutes ago

Mostly Cloudy
Mostly Cloudy
74 °F
Feels Like 74 °F
N
7
Wind Variable Wind from NNE

Today
High -- | Low -- °F
--% Chance of Precip.
Yesterday
High -- | Low -- °F
Precip. -- in
7:25 AM 7:42 PM
Last Quarter, 37% visible
Pressure 29.94 in
Visibility 10.0 miles
Clouds Mostly Cloudy 200 ft
Dew Point 72 °F
Humidity 93%
Rainfall 0.00 in
Snow Depth Not available.
UV 0 out of 12
Pollen 3.80 out of 12
Air Quality Not available.
Flu Activity Not available.
METAR KAAF 171053Z AUTO 02006KT 10SM BKN002 23/22 A2994 RMK AO2 SLP138 T02330222

More Conditions Fewer Conditions

Pressure 29.94 in
Visibility 10.0 miles
Clouds Mostly Cloudy 200 ft
Dew Point 72 °F
Humidity 93%
Rainfall 0.00 in
Snow Depth Not available.
UV 0 out of 12
Pollen 3.80 out of 12
Air Quality Not available.
Flu Activity Not available.
METAR KAAF 171053Z AUTO 02006KT 10SM BKN002 23/22 A2994 RMK AO2 SLP138 T02330222

More Conditions Fewer Conditions

10-Day Weather Forecast

Almanac

Astronomy

Sep. 17, 2014 Rise Set
Actual Time 7:25 AM EDT 7:42 PM EDT
Civil Twilight 7:01 AM EDT 8:06 PM EDT
Nautical Twilight 6:33 AM EDT 8:34 PM EDT
Astronomical Twilight 6:05 AM EDT 9:02 PM EDT
Moon 1:43 AM EDT 3:34 PM EDT
Length of Visible Light 13h 04m
Length of Day
12h 17m
Tomorrow will be 1m 47s shorter.
Last Quarter, 37% of the Moon is Illuminated
Today
Last Quarter
Sep 24
New
Oct 1
First Quarter
Oct 8
Full
Oct 15
Last Quarter

Today's Extremes

State Highs State Lows

Community

WunderPhotos

Upload Photos

1,753,993 photos uploaded!

Nearby

Snow Depth

Station Depth Elevation
No new snow has been reported.

Earthquake Activity

City Distance Mag. Time & Date
No recent earthquake activity has been reported nearby.
Minimum magnitude displayed is 2.5.

Coastal Water Temperatures

Place Temperature
Panama City, FL 87.1 °F
Panama City Beach, FL 84.9 °F
Apalachicola, FL 82.9 °F

Nearby Weather Stations